Terminal Aerodrome Forecast
Issued by NWS Pueblo, CO

Home | Current Version | Previous Version | Text Only | Print | Product List | Glossary On
Versions: 1 2 3 4 5 6 7 8 9 10 11 12 13 14 15 16 17 18 19 20 21 22 23 24 25 26 27 28 29 30 31 32 33 34 35 36 37 38 39 40 41 42 43 44 45 46 47 48 49 50
000
FTUS45 KPUB 071907 AAB
TAFPUB
TAF AMD
KPUB 071907Z 0719/0818 18008KT 3SM BR OVC025
     FM072000 12010KT 4SM BR OVC030
     FM080200 12009KT P6SM VCSH BKN040 OVC100
     FM080900 06005KT 4SM BR SCT010 BKN020=

USA.gov is the U.S. government's official web portal to all federal, state and local government web resources and services.